KSVH/SVH METAR and TAF weather

Enter ICAO airport designator
Station Type Date Time Source
KSVH METAR 2020/07/02 18:55 UTC NOAA

KSVH 021855Z AUTO 04005KT 10SM SCT045 SCT060 SCT070 31/18 A2994 RMK AO2 T03080183


Station Type Date Time Source
KSVH Decoded METAR 2020/07/02 18:55 UTC NOAA

Statesville, Statesville Municipal Airport, NC, United States (KSVH) 35-45-55N 080-57-24W
Jul 02, 2020 - 02:55 PM EDT / 2020.07.02 1855 UTC
Wind: from the NE (040 degrees) at 6 MPH (5 KT):0
Visibility: 10 mile(s):0
Sky conditions: partly cloudy
Temperature: 87.4 F (30.8 C)
Dew Point: 64.9 F (18.3 C)
Relative Humidity: 47%
Pressure (altimeter): 29.94 in. Hg (1013 hPa)
ob: KSVH 021855Z AUTO 04005KT 10SM SCT045 SCT060 SCT070 31/18 A2994 RMK AO2 T03080183
cycle: 19

Station Type Date Time Source
KSVH TAF UTC NOAA

Error!

Example: see airport list